Time;durP1;ratioP1;P1;durP2;ratioP2;P2;SDS_P1;SDS_P2;PMS_P1;PMS_P2;Temp;Humidity;BMP_temperature;BMP_pressure;BME280_temperature;BME280_humidity;BME280_pressure;Samples;Min_cycle;Max_cycle;Signal;HPM_P1;HPM_P2
2022/12/05 00:00:16;;;;;;;28.50;15.40;;;4.40;99.90;;;;;;6238040;23;20020;-86
2022/12/05 00:02:42;;;;;;;28.33;14.88;;;4.40;99.90;;;;;;6239715;23;20035;-85
2022/12/05 00:05:10;;;;;;;31.50;15.35;;;4.40;99.90;;;;;;6239296;23;20420;-85
2022/12/05 00:07:36;;;;;;;32.78;15.75;;;4.40;99.90;;;;;;6240295;22;20012;-85
2022/12/05 00:10:02;;;;;;;30.25;15.40;;;4.40;99.90;;;;;;6238025;23;20023;-85
2022/12/05 00:12:28;;;;;;;27.27;14.25;;;4.40;99.90;;;;;;6237909;23;20043;-86
2022/12/05 00:14:53;;;;;;;34.08;15.05;;;4.40;99.90;;;;;;6213586;23;20027;-86
2022/12/05 00:17:19;;;;;;;29.83;15.27;;;4.50;99.90;;;;;;6239283;23;20386;-85
2022/12/05 00:19:45;;;;;;;28.50;14.75;;;4.50;99.90;;;;;;6211522;23;20423;-86
2022/12/05 00:22:10;;;;;;;31.02;16.25;;;4.50;99.90;;;;;;6240230;23;20008;-85
2022/12/05 00:24:36;;;;;;;29.02;14.73;;;4.50;99.90;;;;;;6239007;23;20102;-86
2022/12/05 00:27:02;;;;;;;30.58;15.52;;;4.50;99.90;;;;;;6237668;23;20525;-85
2022/12/05 00:29:27;;;;;;;29.00;15.15;;;4.50;99.90;;;;;;6237641;23;20451;-85
2022/12/05 00:31:53;;;;;;;32.63;16.50;;;4.50;99.90;;;;;;6238555;23;20024;-86
2022/12/05 00:34:19;;;;;;;29.48;15.05;;;4.50;99.90;;;;;;6237502;23;20077;-86
2022/12/05 00:36:44;;;;;;;28.30;15.20;;;4.50;99.90;;;;;;6239668;23;20439;-86
2022/12/05 00:39:13;;;;;;;31.67;17.25;;;4.50;99.90;;;;;;6240392;22;20012;-85
2022/12/05 00:41:39;;;;;;;30.67;16.17;;;4.50;99.90;;;;;;6240666;23;20012;-85
2022/12/05 00:44:05;;;;;;;34.63;17.42;;;4.50;99.90;;;;;;6264097;22;20012;-85
2022/12/05 00:46:32;;;;;;;32.88;16.20;;;4.60;99.90;;;;;;6238166;23;20070;-85
2022/12/05 00:48:59;;;;;;;34.20;17.23;;;4.60;99.90;;;;;;6236802;23;20024;-85
2022/12/05 00:51:31;;;;;;;35.35;18.60;;;4.60;99.90;;;;;;6237890;23;20050;-85
2022/12/05 00:53:59;;;;;;;37.42;17.92;;;4.60;99.90;;;;;;6238422;23;20087;-85
2022/12/05 00:56:26;;;;;;;38.33;19.98;;;4.70;99.90;;;;;;6240064;23;20079;-85
2022/12/05 00:58:54;;;;;;;39.70;19.13;;;4.70;99.90;;;;;;6212379;23;20107;-85
2022/12/05 01:01:24;;;;;;;37.10;17.77;;;4.70;99.90;;;;;;6240391;23;20036;-85
2022/12/05 01:03:53;;;;;;;38.22;18.58;;;4.70;99.90;;;;;;6237835;23;20023;-85
2022/12/05 01:06:19;;;;;;;34.13;17.95;;;4.70;99.90;;;;;;6238033;23;20046;-85
2022/12/05 01:08:45;;;;;;;35.45;18.73;;;4.70;99.90;;;;;;6237685;23;20020;-85
2022/12/05 01:11:14;;;;;;;35.78;19.23;;;4.70;99.90;;;;;;6237675;23;20090;-85
2022/12/05 01:13:41;;;;;;;32.92;18.20;;;4.80;99.90;;;;;;6240116;23;20074;-85
2022/12/05 01:16:13;;;;;;;38.85;19.35;;;4.80;99.90;;;;;;6238497;23;20052;-85
2022/12/05 01:18:38;;;;;;;37.58;19.02;;;4.80;99.90;;;;;;6237825;23;20051;-85
2022/12/05 01:21:05;;;;;;;38.33;19.02;;;4.80;99.90;;;;;;6236599;23;20498;-85
2022/12/05 01:23:30;;;;;;;36.65;19.05;;;4.80;99.90;;;;;;6236918;23;20012;-85
2022/12/05 01:25:56;;;;;;;35.28;17.67;;;4.80;99.90;;;;;;6237711;23;20022;-85
2022/12/05 01:28:21;;;;;;;36.63;18.40;;;4.80;99.90;;;;;;6236919;23;20101;-85
2022/12/05 01:30:49;;;;;;;37.90;19.10;;;4.80;99.90;;;;;;6236428;23;20343;-85
2022/12/05 01:33:16;;;;;;;36.50;19.92;;;4.80;99.90;;;;;;6239642;22;20016;-85
2022/12/05 01:35:42;;;;;;;36.85;18.08;;;4.80;99.90;;;;;;6239213;23;20016;-85
2022/12/05 01:38:10;;;;;;;37.40;19.73;;;4.80;99.90;;;;;;6237612;23;20012;-85
2022/12/05 01:40:36;;;;;;;34.30;17.75;;;4.80;99.90;;;;;;6238256;23;20107;-85
2022/12/05 01:43:03;;;;;;;34.60;17.77;;;4.80;99.90;;;;;;6238628;23;20451;-85
2022/12/05 01:45:38;;;;;;;40.97;19.05;;;4.90;99.90;;;;;;6237719;23;20024;-86
2022/12/05 01:48:30;;;;;;;39.90;19.48;;;4.80;99.90;;;;;;6237609;23;20024;-85
2022/12/05 01:50:58;;;;;;;36.90;19.17;;;4.90;99.90;;;;;;6229761;23;20020;-85
2022/12/05 01:53:25;;;;;;;37.70;18.70;;;4.90;99.90;;;;;;6239948;23;20016;-85
2022/12/05 01:55:51;;;;;;;36.88;18.95;;;4.90;99.90;;;;;;6237806;23;20080;-85
2022/12/05 01:58:18;;;;;;;37.85;19.08;;;4.90;99.90;;;;;;6237791;23;20020;-85
2022/12/05 02:00:44;;;;;;;37.72;18.40;;;4.90;99.90;;;;;;6238925;23;20020;-85
2022/12/05 02:03:16;;;;;;;33.03;18.55;;;4.90;99.90;;;;;;6237514;23;20023;-85
2022/12/05 02:05:42;;;;;;;31.52;16.70;;;4.90;99.90;;;;;;6237368;23;20024;-85
2022/12/05 02:08:10;;;;;;;34.30;18.23;;;4.90;99.90;;;;;;6239107;23;20027;-85
2022/12/05 02:10:46;;;;;;;33.58;17.25;;;4.90;99.90;;;;;;6237412;23;20035;-85
2022/12/05 02:13:41;;;;;;;34.60;17.20;;;4.90;99.90;;;;;;6237466;23;20020;-85
2022/12/05 02:16:13;;;;;;;31.77;17.00;;;4.90;99.90;;;;;;6236519;23;20020;-85
2022/12/05 02:19:01;;;;;;;31.23;16.05;;;5.00;99.90;;;;;;6237580;23;20020;-85
2022/12/05 02:21:48;;;;;;;32.35;16.05;;;5.00;99.90;;;;;;6237626;23;20020;-85
2022/12/05 02:24:45;;;;;;;26.85;14.38;;;5.00;99.90;;;;;;6237618;23;20024;-85
2022/12/05 02:27:34;;;;;;;28.40;15.73;;;5.00;99.90;;;;;;6238261;23;20024;-85
2022/12/05 02:30:08;;;;;;;27.88;15.25;;;5.00;99.90;;;;;;6237231;23;20342;-84
2022/12/05 02:33:12;;;;;;;26.42;14.65;;;5.00;99.90;;;;;;6212534;23;20020;-84
2022/12/05 02:35:58;;;;;;;26.55;14.00;;;5.00;99.90;;;;;;6235967;23;20066;-84
2022/12/05 02:38:45;;;;;;;26.17;12.98;;;5.00;99.90;;;;;;6239527;23;20027;-84
2022/12/05 02:41:46;;;;;;;24.40;13.15;;;5.00;99.90;;;;;;6237963;23;20019;-85
2022/12/05 02:44:21;;;;;;;23.45;12.85;;;5.10;99.90;;;;;;6234801;23;20074;-84
2022/12/05 02:46:48;;;;;;;20.80;12.15;;;5.10;99.90;;;;;;6237804;23;20513;-84
2022/12/05 02:49:21;;;;;;;22.88;13.00;;;5.10;99.90;;;;;;6236792;23;20042;-84
2022/12/05 02:51:53;;;;;;;26.27;14.85;;;5.10;99.90;;;;;;6237649;23;20020;-84
2022/12/05 02:54:24;;;;;;;23.52;12.80;;;5.10;99.90;;;;;;6240391;23;20485;-84
2022/12/05 02:56:51;;;;;;;22.58;12.63;;;5.10;99.90;;;;;;6239124;23;20016;-84
2022/12/05 02:59:17;;;;;;;21.48;13.38;;;5.10;99.90;;;;;;6238294;23;20012;-84
2022/12/05 03:01:45;;;;;;;24.45;12.55;;;5.10;99.90;;;;;;6238532;23;20400;-84
2022/12/05 03:04:12;;;;;;;21.73;12.98;;;5.10;99.90;;;;;;6239749;23;20138;-84
2022/12/05 03:06:47;;;;;;;21.95;13.25;;;5.10;99.90;;;;;;6239365;23;20016;-82
2022/12/05 03:09:33;;;;;;;25.40;12.45;;;5.10;99.90;;;;;;6240269;23;20020;-84
2022/12/05 03:12:07;;;;;;;22.50;12.20;;;5.10;99.90;;;;;;6222224;23;20573;-84
2022/12/05 03:14:37;;;;;;;26.02;12.10;;;5.10;99.90;;;;;;6238667;23;20095;-84
2022/12/05 03:17:09;;;;;;;23.08;12.50;;;5.10;99.90;;;;;;6240482;23;20027;-84
2022/12/05 03:19:47;;;;;;;21.05;12.45;;;5.10;99.90;;;;;;6241062;23;20055;-84
2022/12/05 03:22:31;;;;;;;21.35;11.98;;;5.10;99.90;;;;;;6240715;23;20019;-84
2022/12/05 03:24:58;;;;;;;22.45;12.60;;;5.10;99.90;;;;;;6238252;23;20012;-84
2022/12/05 03:27:33;;;;;;;19.33;11.93;;;5.10;99.90;;;;;;6238280;23;20514;-84
2022/12/05 03:30:09;;;;;;;19.60;11.85;;;5.10;99.90;;;;;;6213206;23;20020;-84
2022/12/05 03:32:44;;;;;;;21.92;11.43;;;5.10;99.90;;;;;;6241160;23;20034;-84
2022/12/05 03:35:34;;;;;;;20.75;11.57;;;5.10;99.90;;;;;;6212510;23;20008;-84
2022/12/05 03:38:14;;;;;;;19.50;11.23;;;5.10;99.90;;;;;;6239304;23;20019;-84
2022/12/05 03:40:46;;;;;;;21.67;11.63;;;5.10;99.90;;;;;;6239122;23;20019;-84
2022/12/05 03:43:24;;;;;;;22.10;12.63;;;5.10;99.90;;;;;;6239797;23;20008;-84
2022/12/05 03:46:02;;;;;;;18.38;11.07;;;5.10;99.90;;;;;;6239110;23;20451;-83
2022/12/05 03:48:37;;;;;;;20.77;11.35;;;5.10;99.90;;;;;;6238909;23;20055;-84
2022/12/05 03:51:06;;;;;;;20.48;11.43;;;5.10;99.90;;;;;;6240093;22;20091;-84
2022/12/05 03:53:47;;;;;;;18.92;11.20;;;5.10;99.90;;;;;;6238708;23;20261;-84
2022/12/05 03:56:25;;;;;;;19.45;10.90;;;5.10;99.90;;;;;;6240218;23;20016;-83
2022/12/05 03:58:58;;;;;;;16.75;9.95;;;5.10;99.90;;;;;;6240989;23;20035;-83
2022/12/05 04:01:28;;;;;;;19.80;10.60;;;5.10;99.90;;;;;;6240185;22;20016;-84
2022/12/05 04:04:09;;;;;;;19.42;10.60;;;5.10;99.90;;;;;;6240557;23;20081;-83
2022/12/05 04:06:38;;;;;;;16.73;10.35;;;5.10;99.90;;;;;;6238400;23;20474;-84
2022/12/05 04:09:11;;;;;;;16.73;10.13;;;5.10;99.90;;;;;;6239436;23;20074;-84
2022/12/05 04:11:42;;;;;;;18.08;10.07;;;5.10;99.90;;;;;;6239417;23;20020;-84
2022/12/05 04:14:12;;;;;;;20.55;9.93;;;5.10;99.90;;;;;;6240173;23;20020;-84
2022/12/05 04:17:04;;;;;;;19.95;9.55;;;5.10;99.90;;;;;;6240232;23;20741;-84
2022/12/05 04:22:34;;;;;;;17.17;9.15;;;5.10;99.90;;;;;;6239671;23;20031;-84
2022/12/05 04:27:55;;;;;;;15.55;9.13;;;5.10;99.90;;;;;;6236729;23;20027;-84
2022/12/05 04:30:24;;;;;;;14.15;8.30;;;5.10;99.90;;;;;;6238808;23;20024;-84
2022/12/05 04:33:05;;;;;;;13.80;8.55;;;5.10;99.90;;;;;;6237649;23;20335;-83
2022/12/05 04:35:58;;;;;;;14.57;8.45;;;5.10;99.90;;;;;;6239602;23;20016;-84
2022/12/05 04:38:35;;;;;;;16.80;9.13;;;5.20;99.90;;;;;;6238625;23;20019;-83
2022/12/05 04:41:05;;;;;;;15.55;9.20;;;5.10;99.90;;;;;;6261827;22;20012;-84
2022/12/05 04:43:36;;;;;;;14.15;8.30;;;5.10;99.90;;;;;;6239867;23;20015;-84
2022/12/05 04:46:06;;;;;;;13.10;8.00;;;5.40;99.90;;;;;;6239546;23;20054;-84
2022/12/05 04:48:33;;;;;;;12.85;7.90;;;5.10;99.90;;;;;;6238875;23;20048;-84
2022/12/05 04:51:00;;;;;;;13.38;8.20;;;5.20;99.90;;;;;;6237575;23;20458;-84
2022/12/05 04:53:29;;;;;;;14.35;7.57;;;5.10;99.90;;;;;;6238045;23;20016;-83
2022/12/05 04:55:58;;;;;;;12.73;7.65;;;5.20;99.90;;;;;;6236441;23;20019;-84
2022/12/05 04:58:26;;;;;;;14.20;8.02;;;5.20;99.90;;;;;;6239382;23;20016;-84
2022/12/05 05:01:06;;;;;;;11.98;7.35;;;5.20;99.90;;;;;;6237429;23;20170;-84
2022/12/05 05:03:41;;;;;;;12.10;7.07;;;5.20;99.90;;;;;;6263830;22;20012;-83
2022/12/05 05:06:10;;;;;;;13.75;7.95;;;5.20;99.90;;;;;;6237967;23;20016;-83
2022/12/05 05:08:35;;;;;;;14.68;7.40;;;5.20;99.90;;;;;;6239326;22;20094;-84
2022/12/05 05:11:13;;;;;;;15.88;7.65;;;5.10;99.90;;;;;;6238421;22;20008;-84
2022/12/05 05:13:39;;;;;;;15.20;8.23;;;5.20;99.90;;;;;;6239688;23;20019;-83
2022/12/05 05:16:06;;;;;;;15.23;7.85;;;5.20;99.90;;;;;;6239836;22;20008;-84
2022/12/05 05:18:32;;;;;;;14.15;8.07;;;5.20;99.90;;;;;;6238775;23;20070;-84
2022/12/05 05:20:58;;;;;;;14.43;7.07;;;4.70;99.90;;;;;;6239857;22;20012;-83
2022/12/05 05:23:23;;;;;;;13.00;7.82;;;5.20;99.90;;;;;;6210289;23;20096;-84
2022/12/05 05:25:54;;;;;;;16.23;7.38;;;5.20;99.90;;;;;;6211047;23;20024;-84
2022/12/05 05:28:20;;;;;;;14.43;7.35;;;5.20;99.90;;;;;;6238703;23;20012;-83
2022/12/05 05:30:46;;;;;;;14.23;7.90;;;5.20;99.90;;;;;;6238944;23;20048;-82
2022/12/05 05:33:12;;;;;;;13.70;7.88;;;5.20;99.90;;;;;;6237534;23;20024;-83
2022/12/05 05:35:38;;;;;;;13.95;7.65;;;5.20;99.90;;;;;;6236988;23;20012;-83
2022/12/05 05:38:04;;;;;;;14.27;8.10;;;5.20;99.90;;;;;;6238712;23;20113;-84
2022/12/05 05:40:29;;;;;;;12.82;7.40;;;5.20;99.90;;;;;;6238894;22;20012;-84
2022/12/05 05:42:55;;;;;;;13.30;7.88;;;5.20;99.90;;;;;;6237244;23;20020;-84
2022/12/05 05:45:21;;;;;;;15.38;7.53;;;5.20;99.90;;;;;;6239747;23;20079;-84
2022/12/05 05:47:48;;;;;;;14.13;7.95;;;5.20;99.90;;;;;;6212627;23;20018;-84
2022/12/05 05:50:14;;;;;;;14.90;7.82;;;5.10;99.90;;;;;;6263769;22;20035;-84
2022/12/05 05:52:40;;;;;;;16.27;8.25;;;5.20;99.90;;;;;;6236642;23;20058;-83
2022/12/05 05:55:07;;;;;;;12.27;7.40;;;5.20;99.90;;;;;;6262631;22;20319;-84
2022/12/05 05:57:34;;;;;;;14.73;7.95;;;5.20;99.90;;;;;;6235792;23;20186;-84
2022/12/05 06:00:00;;;;;;;13.48;7.53;;;5.20;99.90;;;;;;6212306;23;20055;-83
2022/12/05 06:02:31;;;;;;;13.82;7.75;;;5.30;99.90;;;;;;6239165;23;20382;-83
2022/12/05 06:04:57;;;;;;;12.45;7.32;;;5.20;99.90;;;;;;6212620;23;20019;-83
2022/12/05 06:07:22;;;;;;;11.93;7.07;;;5.20;99.90;;;;;;6239361;23;20016;-83
2022/12/05 06:09:48;;;;;;;12.27;6.88;;;5.20;99.90;;;;;;6241913;23;20099;-83
2022/12/05 06:12:13;;;;;;;11.60;6.95;;;5.30;99.90;;;;;;6239263;23;20023;-84
2022/12/05 06:14:39;;;;;;;12.40;6.90;;;5.20;99.90;;;;;;6239055;23;20016;-84
2022/12/05 06:17:05;;;;;;;14.02;7.03;;;5.20;99.90;;;;;;6241041;23;20012;-84
2022/12/05 06:19:30;;;;;;;12.32;6.68;;;5.20;99.90;;;;;;6239933;23;20340;-84
2022/12/05 06:21:56;;;;;;;12.70;7.15;;;5.20;99.90;;;;;;6241288;23;20016;-84
2022/12/05 06:24:22;;;;;;;12.00;6.97;;;5.30;99.90;;;;;;6241296;22;20023;-84
2022/12/05 06:26:47;;;;;;;12.90;6.97;;;5.20;99.90;;;;;;6241459;23;20466;-84
2022/12/05 06:29:13;;;;;;;9.95;6.10;;;5.20;99.90;;;;;;6241149;23;20028;-83
2022/12/05 06:31:40;;;;;;;13.00;6.55;;;5.20;99.90;;;;;;6242157;23;20023;-84
2022/12/05 06:34:06;;;;;;;11.98;6.53;;;5.20;99.90;;;;;;6241912;23;20564;-83
2022/12/05 06:36:32;;;;;;;12.18;7.03;;;5.30;99.90;;;;;;6242920;23;20016;-83
2022/12/05 06:38:58;;;;;;;14.85;7.55;;;5.20;99.90;;;;;;6242885;22;20020;-83
2022/12/05 06:41:24;;;;;;;14.55;7.05;;;5.30;99.90;;;;;;6242861;23;20016;-83
2022/12/05 06:43:57;;;;;;;17.30;7.72;;;5.30;99.90;;;;;;6241354;23;20123;-83
2022/12/05 06:46:24;;;;;;;14.20;7.82;;;5.20;99.90;;;;;;6240162;23;20047;-83
2022/12/05 06:48:57;;;;;;;13.25;7.65;;;5.20;99.90;;;;;;6215664;23;20018;-83
2022/12/05 06:51:23;;;;;;;14.73;7.93;;;5.30;99.90;;;;;;6239905;23;20016;-83
2022/12/05 06:53:49;;;;;;;16.75;8.07;;;5.20;99.90;;;;;;6241188;23;20518;-85
2022/12/05 06:56:18;;;;;;;18.00;7.40;;;5.20;99.90;;;;;;6241285;23;20016;-83
2022/12/05 06:58:46;;;;;;;14.35;7.75;;;5.20;99.90;;;;;;6241593;23;20032;-83
2022/12/05 07:03:59;;;;;;;15.77;8.77;;;5.30;99.90;;;;;;6240545;23;20344;-83
2022/12/05 07:06:25;;;;;;;16.77;8.23;;;5.20;99.90;;;;;;6242575;22;20014;-84
2022/12/05 07:08:51;;;;;;;17.98;7.97;;;5.30;99.90;;;;;;6240545;23;20013;-84
2022/12/05 07:11:17;;;;;;;15.45;7.20;;;5.40;99.90;;;;;;6239647;23;20082;-85
2022/12/05 07:13:43;;;;;;;17.40;7.57;;;5.30;99.90;;;;;;6244568;23;20024;-84
2022/12/05 07:16:09;;;;;;;14.95;7.85;;;5.30;99.90;;;;;;6242724;22;20012;-85
2022/12/05 07:18:35;;;;;;;14.77;8.52;;;5.30;99.90;;;;;;6242173;23;20474;-84
2022/12/05 07:21:03;;;;;;;17.77;8.38;;;5.80;99.90;;;;;;6241266;23;20051;-85
2022/12/05 07:23:29;;;;;;;16.15;8.30;;;5.30;99.90;;;;;;6217259;23;20063;-85
2022/12/05 07:25:56;;;;;;;13.95;8.98;;;5.30;99.90;;;;;;6242306;23;20016;-85
2022/12/05 07:28:23;;;;;;;17.67;8.88;;;5.30;99.90;;;;;;6265118;22;20110;-83
2022/12/05 07:30:48;;;;;;;16.58;8.63;;;5.30;99.90;;;;;;6242084;22;20056;-83
2022/12/05 07:33:14;;;;;;;19.33;8.55;;;5.30;99.90;;;;;;6240606;23;20045;-83
2022/12/05 07:35:40;;;;;;;18.58;8.80;;;5.30;99.90;;;;;;6241615;23;20008;-82
2022/12/05 07:38:05;;;;;;;15.13;8.13;;;5.30;99.90;;;;;;6241229;23;20020;-84
2022/12/05 07:40:31;;;;;;;19.13;8.70;;;5.30;99.90;;;;;;6240904;23;20016;-83
2022/12/05 07:42:57;;;;;;;17.75;8.32;;;5.30;99.90;;;;;;6242275;22;20019;-83
2022/12/05 07:45:22;;;;;;;19.08;9.32;;;5.30;99.90;;;;;;6240599;23;20554;-83
2022/12/05 07:47:48;;;;;;;18.85;9.63;;;5.30;99.90;;;;;;6241082;23;20016;-81
2022/12/05 07:50:14;;;;;;;22.35;10.05;;;5.30;99.90;;;;;;6239728;23;20015;-80
2022/12/05 07:52:40;;;;;;;19.85;9.05;;;5.30;99.90;;;;;;6239835;23;20012;-81
2022/12/05 07:55:06;;;;;;;21.77;10.35;;;5.30;99.90;;;;;;6241224;23;20015;-81
2022/12/05 07:57:32;;;;;;;21.45;9.20;;;5.30;99.90;;;;;;6239988;23;20059;-80
2022/12/05 07:59:57;;;;;;;20.02;9.63;;;5.30;99.90;;;;;;6241075;23;20012;-81
2022/12/05 08:02:23;;;;;;;21.45;9.20;;;5.30;99.90;;;;;;6240776;23;20332;-81
2022/12/05 08:04:48;;;;;;;20.45;9.48;;;5.30;99.90;;;;;;6211191;23;20537;-81
2022/12/05 08:07:14;;;;;;;23.42;10.52;;;5.30;99.90;;;;;;6238287;23;20344;-81
2022/12/05 08:09:40;;;;;;;19.83;8.93;;;5.30;99.90;;;;;;6238108;23;20016;-81
2022/12/05 08:12:06;;;;;;;20.77;10.30;;;5.30;99.90;;;;;;6242087;22;20015;-82
2022/12/05 08:14:31;;;;;;;15.88;9.15;;;5.30;99.90;;;;;;6241780;23;20083;-82
2022/12/05 08:16:57;;;;;;;20.35;8.75;;;5.30;99.90;;;;;;6240259;22;20382;-86
2022/12/05 08:19:23;;;;;;;23.75;10.10;;;5.30;99.90;;;;;;6241641;23;20024;-84
2022/12/05 08:21:48;;;;;;;17.33;8.30;;;5.30;99.90;;;;;;6239852;22;20008;-83
2022/12/05 08:24:14;;;;;;;20.17;8.50;;;5.30;99.90;;;;;;6238689;23;20071;-81
2022/12/05 08:26:40;;;;;;;20.38;9.75;;;5.30;99.90;;;;;;6237698;23;20012;-81
2022/12/05 08:29:09;;;;;;;17.83;9.38;;;5.30;99.90;;;;;;6240532;23;20019;-82
2022/12/05 08:31:41;;;;;;;19.13;9.15;;;5.30;99.90;;;;;;6238787;23;20024;-81
2022/12/05 08:34:07;;;;;;;18.40;7.95;;;5.30;99.90;;;;;;6241410;22;20070;-82
2022/12/05 08:36:32;;;;;;;20.60;9.05;;;5.30;99.90;;;;;;6239738;23;20052;-81
2022/12/05 08:39:01;;;;;;;19.13;8.20;;;5.30;99.90;;;;;;6238937;23;20023;-81
2022/12/05 08:41:27;;;;;;;14.07;7.93;;;5.30;99.90;;;;;;6213884;23;20016;-82
2022/12/05 08:43:54;;;;;;;17.73;8.10;;;5.30;99.90;;;;;;6241285;22;20016;-82
2022/12/05 08:46:20;;;;;;;15.55;8.20;;;5.30;99.90;;;;;;6237955;23;20026;-81
2022/12/05 08:48:46;;;;;;;18.20;8.55;;;5.30;99.90;;;;;;6240222;23;20039;-81
2022/12/05 08:51:12;;;;;;;17.05;8.38;;;5.30;99.90;;;;;;6238256;23;20019;-82
2022/12/05 08:53:39;;;;;;;14.43;7.97;;;5.30;99.90;;;;;;6239875;22;20015;-81
2022/12/05 08:56:07;;;;;;;15.10;7.82;;;5.30;99.90;;;;;;6239858;23;20024;-82
2022/12/05 08:58:33;;;;;;;19.52;8.50;;;5.30;99.90;;;;;;6238874;23;20023;-82
2022/12/05 09:01:07;;;;;;;16.70;8.60;;;5.30;99.90;;;;;;6238730;23;20679;-82
2022/12/05 09:03:32;;;;;;;18.05;8.27;;;5.40;99.90;;;;;;6240449;23;20094;-82
2022/12/05 09:06:11;;;;;;;17.98;8.43;;;5.30;99.90;;;;;;6241332;23;20093;-82
2022/12/05 09:08:38;;;;;;;17.50;8.52;;;5.30;99.90;;;;;;6240624;23;20020;-81
2022/12/05 09:11:08;;;;;;;15.65;8.35;;;5.30;99.90;;;;;;6239663;23;20035;-82
2022/12/05 09:13:34;;;;;;;15.60;9.05;;;5.40;99.90;;;;;;6241314;23;20016;-81
2022/12/05 09:16:11;;;;;;;15.68;8.63;;;5.40;99.90;;;;;;6241243;23;20471;-82
2022/12/05 09:18:38;;;;;;;14.80;7.93;;;5.40;99.90;;;;;;6240884;23;20016;-82
2022/12/05 09:21:12;;;;;;;19.58;9.02;;;5.40;99.90;;;;;;6214410;23;20012;-84
2022/12/05 09:23:37;;;;;;;19.15;9.60;;;5.40;99.90;;;;;;6239717;23;20059;-83
2022/12/05 09:26:05;;;;;;;17.95;9.10;;;5.40;99.90;;;;;;6241419;23;20324;-82
2022/12/05 09:28:32;;;;;;;16.20;8.60;;;5.40;99.90;;;;;;6240435;23;20117;-82
2022/12/05 09:31:00;;;;;;;17.00;8.88;;;5.40;99.90;;;;;;6236669;23;20032;-82
2022/12/05 09:33:27;;;;;;;16.58;8.13;;;5.40;99.90;;;;;;6212484;23;20019;-82
2022/12/05 09:35:53;;;;;;;13.30;7.80;;;5.40;99.90;;;;;;6240338;23;20043;-82
2022/12/05 09:38:18;;;;;;;21.52;8.98;;;5.40;99.90;;;;;;6237927;23;20471;-82
2022/12/05 09:40:44;;;;;;;14.30;7.63;;;5.40;99.90;;;;;;6238264;23;20455;-83
2022/12/05 09:43:52;;;;;;;17.83;8.35;;;5.40;99.90;;;;;;6238903;23;20435;-82
2022/12/05 09:46:24;;;;;;;13.85;7.97;;;5.40;99.90;;;;;;6239438;23;20012;-82
2022/12/05 09:48:51;;;;;;;15.98;7.72;;;5.40;99.90;;;;;;6240326;23;20043;-82
2022/12/05 09:51:17;;;;;;;19.73;7.97;;;5.40;99.90;;;;;;6238961;23;20338;-82
2022/12/05 09:53:43;;;;;;;16.52;8.77;;;5.40;99.90;;;;;;6240424;23;20018;-82
2022/12/05 09:56:21;;;;;;;19.05;8.40;;;5.40;99.90;;;;;;6236621;23;20470;-82
2022/12/05 09:58:55;;;;;;;17.58;8.50;;;5.40;99.90;;;;;;6237719;23;20043;-82
2022/12/05 10:01:23;;;;;;;15.30;7.03;;;5.40;99.90;;;;;;6237887;23;20027;-82
2022/12/05 10:04:06;;;;;;;15.50;7.97;;;5.40;99.90;;;;;;6235488;23;20016;-82
2022/12/05 10:07:06;;;;;;;13.43;7.70;;;5.50;99.90;;;;;;6239539;23;20016;-83
2022/12/05 10:09:40;;;;;;;16.02;7.57;;;5.50;99.90;;;;;;6225429;23;20048;-82
2022/12/05 10:12:43;;;;;;;16.23;7.63;;;5.40;99.90;;;;;;6239342;23;20012;-82
2022/12/05 10:15:44;;;;;;;18.65;8.55;;;5.50;99.90;;;;;;6239502;23;20012;-82
2022/12/05 10:18:29;;;;;;;17.30;7.97;;;5.50;99.90;;;;;;6239184;22;20083;-82
2022/12/05 10:20:57;;;;;;;13.10;7.43;;;5.50;99.90;;;;;;6237001;23;20451;-81
2022/12/05 10:23:35;;;;;;;13.52;6.90;;;5.50;99.90;;;;;;6237821;23;20059;-82
2022/12/05 10:26:04;;;;;;;16.92;7.70;;;5.50;99.90;;;;;;6237147;23;20069;-82
2022/12/05 10:28:56;;;;;;;17.92;8.63;;;5.50;99.90;;;;;;6238045;22;20026;-82
2022/12/05 10:31:26;;;;;;;16.20;7.90;;;5.50;99.90;;;;;;6238858;23;20035;-83
2022/12/05 10:34:00;;;;;;;14.70;7.28;;;5.50;99.90;;;;;;6238824;22;20596;-82
2022/12/05 10:36:25;;;;;;;16.90;7.95;;;5.50;99.90;;;;;;6238855;23;20043;-83
2022/12/05 10:38:51;;;;;;;13.23;7.28;;;5.60;99.90;;;;;;6238924;23;20493;-83
2022/12/05 10:41:17;;;;;;;14.02;7.43;;;5.50;99.90;;;;;;6238874;23;20013;-82
2022/12/05 10:43:44;;;;;;;13.60;6.78;;;5.50;99.90;;;;;;6238615;23;20012;-82
2022/12/05 10:46:12;;;;;;;14.88;6.88;;;5.50;99.90;;;;;;6239785;22;20008;-82
2022/12/05 10:48:40;;;;;;;13.80;6.65;;;5.50;99.90;;;;;;6237712;23;20054;-83
2022/12/05 10:51:06;;;;;;;12.70;6.60;;;5.50;99.90;;;;;;6240096;22;20020;-82
2022/12/05 10:53:40;;;;;;;12.25;6.68;;;5.50;99.90;;;;;;6239341;22;20015;-82
2022/12/05 10:56:39;;;;;;;16.10;6.40;;;5.50;99.90;;;;;;6239686;23;20016;-82
2022/12/05 10:59:07;;;;;;;11.57;5.65;;;5.50;99.90;;;;;;6237386;23;20093;-82
2022/12/05 11:01:35;;;;;;;14.98;6.13;;;5.60;99.90;;;;;;6238990;22;20016;-82
2022/12/05 11:04:18;;;;;;;12.15;6.38;;;5.50;99.90;;;;;;6237343;23;20034;-82
2022/12/05 11:06:56;;;;;;;12.20;7.13;;;5.60;99.90;;;;;;6238327;23;20556;-81
2022/12/05 11:09:25;;;;;;;13.43;8.30;;;5.60;99.90;;;;;;6236085;23;20027;-82
2022/12/05 11:12:03;;;;;;;14.90;6.82;;;5.60;99.90;;;;;;6237987;23;20074;-82
2022/12/05 11:14:30;;;;;;;12.13;6.15;;;5.60;99.90;;;;;;6238464;22;20091;-82
2022/12/05 11:16:59;;;;;;;15.30;6.88;;;5.60;99.90;;;;;;6238334;22;20012;-83
2022/12/05 11:19:28;;;;;;;12.18;6.03;;;5.60;99.90;;;;;;6239858;23;20016;-82
2022/12/05 11:21:54;;;;;;;14.98;7.03;;;5.60;99.90;;;;;;6241328;23;20024;-82
2022/12/05 11:24:35;;;;;;;13.88;7.43;;;5.60;99.90;;;;;;6240169;23;20272;-82
2022/12/05 11:27:16;;;;;;;12.27;6.57;;;5.60;99.90;;;;;;6239584;23;20335;-83
2022/12/05 11:29:44;;;;;;;12.70;7.03;;;5.60;99.90;;;;;;6240058;23;20020;-83
2022/12/05 11:32:19;;;;;;;14.30;7.13;;;5.60;99.90;;;;;;6239557;23;20016;-83
2022/12/05 11:35:02;;;;;;;14.73;8.43;;;5.60;99.90;;;;;;6240527;23;20023;-82
2022/12/05 11:37:53;;;;;;;14.70;8.27;;;5.60;99.90;;;;;;6241907;23;20016;-82
2022/12/05 11:40:28;;;;;;;14.95;7.20;;;5.70;99.90;;;;;;6217746;23;20008;-84
2022/12/05 11:43:17;;;;;;;12.77;7.45;;;5.60;99.90;;;;;;6241883;23;20024;-83
2022/12/05 11:46:01;;;;;;;15.25;7.65;;;5.60;99.90;;;;;;6242164;23;20738;-82
2022/12/05 11:49:05;;;;;;;16.20;8.05;;;5.60;99.90;;;;;;6266974;22;20016;-82
2022/12/05 11:51:31;;;;;;;12.82;7.20;;;5.60;99.90;;;;;;6178698;23;20017;-82
2022/12/05 11:53:59;;;;;;;17.50;7.03;;;6.20;99.90;;;;;;6179330;23;20096;-82
2022/12/05 11:56:42;;;;;;;13.50;7.78;;;5.60;99.90;;;;;;6153237;23;20605;-82
2022/12/05 11:59:29;;;;;;;13.27;7.22;;;5.60;99.90;;;;;;6152307;23;20092;-83
2022/12/05 12:02:21;;;;;;;14.10;7.20;;;5.60;99.90;;;;;;6177680;23;20368;-82
2022/12/05 12:04:58;;;;;;;13.40;7.57;;;5.60;99.90;;;;;;6150411;23;20036;-82
2022/12/05 12:07:46;;;;;;;15.25;6.57;;;5.60;99.90;;;;;;6177960;23;20494;-83
2022/12/05 12:10:30;;;;;;;13.23;6.93;;;5.60;99.90;;;;;;6153852;23;20067;-83
2022/12/05 12:13:14;;;;;;;11.27;6.63;;;5.60;99.90;;;;;;6178189;23;20051;-83
2022/12/05 12:16:04;;;;;;;15.63;7.13;;;5.60;99.90;;;;;;6178947;23;20013;-83
2022/12/05 12:18:30;;;;;;;11.88;6.93;;;5.60;99.90;;;;;;6178431;23;20026;-83
2022/12/05 12:21:26;;;;;;;11.45;6.57;;;5.60;99.90;;;;;;6177757;23;20076;-82
2022/12/05 12:24:16;;;;;;;12.50;6.30;;;5.60;99.90;;;;;;6152435;23;20017;-82
2022/12/05 12:27:15;;;;;;;12.82;6.70;;;5.60;99.90;;;;;;6241564;22;20008;-83
2022/12/05 12:29:49;;;;;;;12.27;6.05;;;5.60;99.90;;;;;;6241418;22;20017;-83
2022/12/05 12:32:15;;;;;;;13.38;6.18;;;5.60;99.90;;;;;;6240818;23;20008;-83
2022/12/05 12:35:16;;;;;;;12.77;6.55;;;5.60;99.90;;;;;;6239922;23;20022;-83
2022/12/05 12:37:57;;;;;;;14.38;6.43;;;5.60;99.90;;;;;;6240640;23;20016;-83
2022/12/05 12:40:45;;;;;;;13.95;6.68;;;5.50;99.90;;;;;;6241541;23;20019;-83
2022/12/05 12:43:19;;;;;;;11.85;6.43;;;5.60;99.90;;;;;;6241883;23;20023;-83
2022/12/05 12:45:48;;;;;;;;;;;5.60;99.90;;;;;;6242461;22;20016;-83
2022/12/05 12:48:58;;;;;;;11.35;5.80;;;5.60;99.90;;;;;;6242189;23;19923;-83
2022/12/05 12:51:26;;;;;;;11.52;5.90;;;5.60;99.90;;;;;;6235745;23;20016;-83
2022/12/05 12:54:06;;;;;;;9.60;5.60;;;5.60;99.90;;;;;;6240958;22;20050;-83
2022/12/05 12:56:55;;;;;;;12.80;6.57;;;5.60;99.90;;;;;;6241033;23;20415;-83
2022/12/05 12:59:30;;;;;;;12.13;6.43;;;5.60;99.90;;;;;;6240789;23;20074;-83
2022/12/05 13:02:38;;;;;;;11.88;5.88;;;5.60;99.90;;;;;;6241767;22;20019;-83
2022/12/05 13:05:33;;;;;;;11.32;5.22;;;5.60;99.90;;;;;;6177701;23;20049;-83
2022/12/05 13:08:13;;;;;;;9.98;5.07;;;5.60;99.90;;;;;;6178113;23;20084;-83
2022/12/05 13:10:44;;;;;;;11.57;6.07;;;5.60;99.90;;;;;;6177904;23;20009;-84
2022/12/05 13:13:26;;;;;;;10.43;5.13;;;5.60;99.90;;;;;;6178274;23;20032;-82
2022/12/05 13:15:56;;;;;;;10.20;5.40;;;5.60;99.90;;;;;;6178837;23;20013;-83